createdAt,value
2017-10-30T00:00:27.647Z,81.06
2017-10-30T00:01:27.256Z,80.96
2017-10-30T00:02:27.235Z,80.77
2017-10-30T00:03:27.225Z,80.87
2017-10-30T00:04:27.207Z,80.77
2017-10-30T00:05:27.186Z,80.77
2017-10-30T00:06:27.237Z,80.96
2017-10-30T00:07:27.158Z,80.87
2017-10-30T00:08:27.156Z,80.87
2017-10-30T00:09:27.123Z,80.40
2017-10-30T00:10:27.118Z,80.40
2017-10-30T00:11:27.090Z,79.83
2017-10-30T00:12:27.212Z,80.21
2017-10-30T00:13:27.056Z,80.40
2017-10-30T00:14:27.062Z,80.77
2017-10-30T00:15:27.024Z,80.49
2017-10-30T00:16:27.005Z,81.25
2017-10-30T00:17:26.989Z,80.87
2017-10-30T00:18:27.330Z,80.40
2017-10-30T00:19:26.973Z,80.30
2017-10-30T00:20:26.939Z,80.49
2017-10-30T00:21:26.937Z,79.83
2017-10-30T00:22:26.906Z,80.21
2017-10-30T00:23:26.915Z,80.49
2017-10-30T00:24:27.024Z,80.40
2017-10-30T00:25:26.866Z,80.49
2017-10-30T00:26:26.840Z,80.11
2017-10-30T00:27:26.829Z,80.58
2017-10-30T00:28:26.807Z,80.58
2017-10-30T00:29:26.790Z,80.49
2017-10-30T00:30:26.806Z,80.96
2017-10-30T00:31:26.752Z,80.87
2017-10-30T00:32:26.742Z,80.87
2017-10-30T00:33:26.724Z,80.58
2017-10-30T00:34:26.706Z,80.96
2017-10-30T00:35:26.889Z,80.96
2017-10-30T00:36:26.677Z,81.35
2017-10-30T00:37:26.666Z,80.96
2017-10-30T00:38:26.652Z,80.49
2017-10-30T00:39:26.641Z,80.96
2017-10-30T00:40:26.612Z,81.73
2017-10-30T00:41:26.892Z,81.44
2017-10-30T00:42:26.582Z,81.44
2017-10-30T00:43:26.567Z,81.16
2017-10-30T00:44:26.550Z,81.54
2017-10-30T00:45:26.528Z,82.10
2017-10-30T00:46:26.517Z,81.54
2017-10-30T00:47:26.533Z,81.92
2017-10-30T00:48:26.478Z,82.20
2017-10-30T00:49:26.465Z,81.92
2017-10-30T00:50:26.581Z,81.54
2017-10-30T00:51:26.433Z,81.54
2017-10-30T00:52:26.421Z,82.20
2017-10-30T00:53:26.396Z,81.92
2017-10-30T00:54:26.388Z,82.10
2017-10-30T00:55:26.366Z,81.73
2017-10-30T00:56:26.415Z,81.73
2017-10-30T00:57:26.327Z,82.49
2017-10-30T00:58:26.320Z,82.20
2017-10-30T00:59:26.296Z,82.29
2017-10-30T01:00:26.283Z,82.39
2017-10-30T01:01:26.266Z,81.92
2017-10-30T01:02:26.391Z,82.01
2017-10-30T01:03:26.234Z,82.10
2017-10-30T01:04:26.228Z,82.20
2017-10-30T01:05:26.196Z,82.68
2017-10-30T01:06:26.183Z,82.49
2017-10-30T01:07:26.171Z,82.68
2017-10-30T01:08:26.219Z,82.49
2017-10-30T01:09:26.140Z,82.68
2017-10-30T01:10:26.114Z,82.77
2017-10-30T01:11:26.100Z,82.77
2017-10-30T01:12:26.089Z,82.39
2017-10-30T01:13:26.066Z,82.96
2017-10-30T01:14:26.110Z,82.68
2017-10-30T01:15:26.039Z,83.06
2017-10-30T01:16:26.027Z,83.53
2017-10-30T01:17:26.001Z,83.82
2017-10-30T01:18:25.989Z,84.20
2017-10-30T01:19:25.967Z,84.20
2017-10-30T01:20:25.996Z,84.20
2017-10-30T01:21:25.954Z,84.29
2017-10-30T01:22:25.918Z,83.44
2017-10-30T01:23:25.904Z,83.25
2017-10-30T01:24:25.945Z,83.25
2017-10-30T01:25:25.873Z,83.53
2017-10-30T01:26:25.862Z,83.15
2017-10-30T01:27:25.842Z,83.34
2017-10-30T01:28:25.818Z,83.15
2017-10-30T01:29:25.800Z,83.62
2017-10-30T01:30:26.229Z,83.53
2017-10-30T01:31:25.773Z,84.01
2017-10-30T01:32:25.762Z,84.10
2017-10-30T01:33:25.737Z,83.91
2017-10-30T01:34:25.724Z,83.82
2017-10-30T01:35:25.699Z,84.29
2017-10-30T01:36:25.817Z,84.10
2017-10-30T01:37:25.672Z,83.62
2017-10-30T01:38:25.653Z,83.62
2017-10-30T01:39:25.636Z,83.62
2017-10-30T01:40:25.617Z,83.91
2017-10-30T01:41:25.601Z,84.20
2017-10-30T01:42:25.641Z,84.29
2017-10-30T01:43:25.590Z,84.20
2017-10-30T01:44:25.555Z,83.44
2017-10-30T01:45:25.548Z,83.44
2017-10-30T01:46:25.516Z,83.72
2017-10-30T01:47:25.503Z,83.53
2017-10-30T01:48:25.630Z,83.62
2017-10-30T01:49:32.251Z,83.53
2017-10-30T01:50:25.456Z,84.01
2017-10-30T01:51:25.439Z,83.72
2017-10-30T01:52:25.422Z,83.34
2017-10-30T01:53:25.405Z,83.34
2017-10-30T01:54:25.467Z,83.91
2017-10-30T01:55:25.378Z,84.10
2017-10-30T01:56:25.355Z,83.72
2017-10-30T01:57:25.336Z,83.44
2017-10-30T01:58:25.319Z,83.44
2017-10-30T01:59:25.306Z,83.72
2017-10-30T02:00:25.422Z,83.44
2017-10-30T02:01:25.276Z,83.44
2017-10-30T02:02:25.254Z,83.44
2017-10-30T02:03:25.237Z,84.10
2017-10-30T02:04:25.217Z,83.91
2017-10-30T02:05:25.219Z,83.62
2017-10-30T02:06:25.257Z,83.44
2017-10-30T02:07:25.172Z,83.44
2017-10-30T02:08:25.156Z,83.53
2017-10-30T02:09:25.141Z,83.53
2017-10-30T02:10:25.119Z,83.20
2017-10-30T02:11:25.112Z,83.44
2017-10-30T02:12:25.140Z,83.59
2017-10-30T02:13:25.072Z,83.34
2017-10-30T02:14:25.062Z,84.29
2017-10-30T02:15:25.038Z,83.44
2017-10-30T02:16:25.021Z,83.44
2017-10-30T02:17:25.003Z,83.91
2017-10-30T02:18:25.130Z,83.87
2017-10-30T02:19:24.971Z,83.62
2017-10-30T02:20:24.967Z,82.96
2017-10-30T02:21:24.943Z,83.44
2017-10-30T02:22:24.946Z,83.59
2017-10-30T02:23:24.903Z,83.20
2017-10-30T02:24:25.042Z,83.68
2017-10-30T02:25:24.874Z,83.59
2017-10-30T02:26:24.860Z,83.39
2017-10-30T02:27:24.839Z,83.39
2017-10-30T02:28:24.827Z,83.30
2017-10-30T02:29:24.806Z,83.39
2017-10-30T02:30:24.866Z,83.59
2017-10-30T02:31:24.774Z,83.20
2017-10-30T02:32:24.756Z,82.92
2017-10-30T02:33:24.737Z,83.30
2017-10-30T02:34:24.722Z,83.20
2017-10-30T02:35:24.709Z,83.20
2017-10-30T02:36:24.829Z,83.97
2017-10-30T02:37:24.684Z,83.59
2017-10-30T02:38:24.670Z,83.59
2017-10-30T02:39:24.645Z,83.87
2017-10-30T02:40:24.626Z,83.49
2017-10-30T02:41:24.609Z,84.16
2017-10-30T02:42:24.646Z,83.68
2017-10-30T02:43:24.580Z,83.49
2017-10-30T02:44:24.558Z,83.78
2017-10-30T02:45:24.542Z,83.53
2017-10-30T02:46:24.530Z,84.06
2017-10-30T02:47:24.505Z,83.20
2017-10-30T02:48:24.555Z,84.01
2017-10-30T02:49:24.472Z,83.97
2017-10-30T02:50:24.456Z,84.16
2017-10-30T02:51:24.449Z,83.59
2017-10-30T02:52:24.421Z,83.39
2017-10-30T02:53:24.409Z,83.91
2017-10-30T02:54:24.447Z,84.01
2017-10-30T02:55:24.384Z,84.06
2017-10-30T02:56:24.363Z,83.39
2017-10-30T02:57:24.341Z,83.20
2017-10-30T02:58:24.320Z,83.34
2017-10-30T02:59:24.305Z,84.06
2017-10-30T03:00:24.340Z,83.91
2017-10-30T03:01:24.279Z,83.39
2017-10-30T03:02:24.258Z,83.49
2017-10-30T03:03:24.235Z,83.49
2017-10-30T03:04:24.220Z,84.25
2017-10-30T03:05:24.206Z,84.06
2017-10-30T03:06:24.618Z,84.25
2017-10-30T03:07:24.179Z,84.10
2017-10-30T03:08:24.165Z,84.20
2017-10-30T03:09:24.140Z,83.39
2017-10-30T03:10:24.124Z,83.97
2017-10-30T03:11:24.111Z,83.91
2017-10-30T03:12:24.227Z,84.10
2017-10-30T03:13:24.071Z,84.01
2017-10-30T03:14:24.059Z,83.91
2017-10-30T03:15:24.038Z,83.25
2017-10-30T03:16:24.028Z,83.01
2017-10-30T03:17:24.005Z,84.06
2017-10-30T03:18:24.123Z,83.59
2017-10-30T03:19:23.973Z,83.15
2017-10-30T03:20:23.968Z,83.62
2017-10-30T03:21:23.937Z,83.59
2017-10-30T03:22:23.920Z,83.44
2017-10-30T03:23:23.908Z,82.96
2017-10-30T03:24:24.235Z,83.39
2017-10-30T03:25:23.871Z,83.25
2017-10-30T03:26:23.855Z,83.25
2017-10-30T03:27:23.837Z,83.44
2017-10-30T03:28:23.827Z,83.20
2017-10-30T03:29:23.805Z,83.30
2017-10-30T03:30:23.929Z,83.34
2017-10-30T03:31:23.786Z,83.44
2017-10-30T03:32:23.763Z,83.53
2017-10-30T03:33:23.743Z,83.34
2017-10-30T03:34:23.720Z,83.01
2017-10-30T03:35:23.720Z,83.25
2017-10-30T03:36:23.827Z,83.01
2017-10-30T03:37:23.669Z,82.96
2017-10-30T03:38:23.667Z,83.01
2017-10-30T03:39:23.648Z,83.53
2017-10-30T03:40:23.625Z,84.20
2017-10-30T03:41:23.602Z,84.20
2017-10-30T03:42:23.840Z,83.62
2017-10-30T03:43:23.570Z,83.59
2017-10-30T03:44:23.555Z,84.10
2017-10-30T03:45:23.548Z,84.01
2017-10-30T03:46:23.518Z,84.01
2017-10-30T03:47:23.507Z,83.62
2017-10-30T03:48:23.543Z,83.91
2017-10-30T03:49:23.475Z,83.62
2017-10-30T03:50:23.456Z,84.10
2017-10-30T03:51:23.454Z,83.62
2017-10-30T03:52:23.434Z,84.01
2017-10-30T03:53:23.406Z,84.10
2017-10-30T03:54:23.770Z,83.82
2017-10-30T03:55:23.379Z,83.91
2017-10-30T03:56:23.367Z,84.77
2017-10-30T03:57:23.345Z,84.34
2017-10-30T03:58:23.334Z,84.72
2017-10-30T03:59:23.307Z,85.11
2017-10-30T04:00:23.352Z,84.91
2017-10-30T04:01:23.279Z,84.72
2017-10-30T04:02:23.259Z,84.91
2017-10-30T04:03:23.242Z,84.95
2017-10-30T04:04:23.224Z,85.49
2017-10-30T04:05:23.213Z,84.91
2017-10-30T04:06:23.256Z,85.62
2017-10-30T04:07:23.178Z,85.20
2017-10-30T04:08:23.161Z,85.20
2017-10-30T04:09:23.136Z,85.11
2017-10-30T04:10:23.124Z,84.86
2017-10-30T04:11:23.107Z,85.49
2017-10-30T04:12:23.150Z,84.63
2017-10-30T04:13:23.070Z,85.11
2017-10-30T04:14:23.071Z,84.91
2017-10-30T04:15:23.044Z,85.30
2017-10-30T04:16:23.032Z,85.43
2017-10-30T04:17:23.006Z,85.01
2017-10-30T04:18:23.124Z,84.82
2017-10-30T04:19:22.974Z,84.91
2017-10-30T04:20:22.958Z,84.72
2017-10-30T04:21:22.936Z,85.20
2017-10-30T04:22:22.924Z,85.20
2017-10-30T04:23:22.905Z,85.39
2017-10-30T04:24:23.024Z,85.49
2017-10-30T04:25:22.884Z,84.91
2017-10-30T04:26:22.857Z,85.49
2017-10-30T04:27:22.843Z,85.01
2017-10-30T04:28:22.824Z,85.20
2017-10-30T04:29:22.807Z,85.39
2017-10-30T04:30:22.930Z,84.63
2017-10-30T04:31:22.777Z,85.58
2017-10-30T04:32:22.760Z,85.30
2017-10-30T04:33:22.740Z,84.63
2017-10-30T04:34:22.735Z,84.82
2017-10-30T04:35:22.706Z,84.63
2017-10-30T04:36:22.834Z,85.11
2017-10-30T04:37:22.673Z,84.82
2017-10-30T04:38:22.672Z,85.39
2017-10-30T04:39:22.639Z,84.34
2017-10-30T04:40:22.631Z,84.63
2017-10-30T04:41:22.603Z,85.49
2017-10-30T04:42:22.625Z,85.49
2017-10-30T04:43:22.579Z,85.01
2017-10-30T04:44:22.555Z,85.39
2017-10-30T04:45:22.541Z,84.82
2017-10-30T04:46:22.658Z,85.30
2017-10-30T04:47:22.503Z,85.58
2017-10-30T04:48:22.491Z,85.49
2017-10-30T04:49:22.490Z,84.91
2017-10-30T04:50:22.455Z,85.01
2017-10-30T04:51:22.435Z,85.39
2017-10-30T04:52:22.834Z,85.11
2017-10-30T04:53:22.413Z,85.20
2017-10-30T04:54:22.388Z,85.20
2017-10-30T04:55:22.389Z,84.82
2017-10-30T04:56:22.356Z,85.30
2017-10-30T04:57:22.347Z,85.49
2017-10-30T04:58:22.743Z,85.30
2017-10-30T04:59:22.305Z,84.91
2017-10-30T05:00:22.288Z,84.44
2017-10-30T05:01:22.269Z,84.72
2017-10-30T05:02:22.255Z,84.72
2017-10-30T05:03:22.236Z,85.39
2017-10-30T05:04:22.276Z,85.39
2017-10-30T05:05:22.204Z,84.72
2017-10-30T05:06:22.195Z,84.82
2017-10-30T05:07:22.171Z,85.11
2017-10-30T05:08:22.155Z,85.49
2017-10-30T05:09:22.137Z,85.58
2017-10-30T05:10:22.157Z,84.91
2017-10-30T05:11:22.136Z,84.82
2017-10-30T05:12:22.082Z,84.63
2017-10-30T05:13:22.085Z,84.91
2017-10-30T05:14:22.051Z,84.82
2017-10-30T05:15:22.045Z,84.72
2017-10-30T05:16:22.335Z,84.72
2017-10-30T05:17:22.011Z,85.39
2017-10-30T05:18:21.986Z,84.63
2017-10-30T05:19:21.966Z,85.01
2017-10-30T05:20:21.951Z,84.91
2017-10-30T05:21:21.932Z,85.20
2017-10-30T05:22:22.067Z,85.01
2017-10-30T05:23:21.902Z,85.58
2017-10-30T05:24:21.881Z,84.82
2017-10-30T05:25:21.879Z,84.82
2017-10-30T05:26:21.851Z,85.49
2017-10-30T05:27:21.846Z,85.39
2017-10-30T05:28:21.876Z,85.01
2017-10-30T05:29:21.796Z,85.30
2017-10-30T05:30:21.781Z,85.30
2017-10-30T05:31:21.762Z,84.82
2017-10-30T05:32:21.751Z,85.49
2017-10-30T05:33:21.751Z,85.58
2017-10-30T05:34:21.860Z,85.30
2017-10-30T05:35:21.695Z,85.39
2017-10-30T05:36:21.689Z,85.49
2017-10-30T05:37:21.665Z,85.49
2017-10-30T05:38:21.645Z,85.58
2017-10-30T05:39:21.624Z,85.49
2017-10-30T05:40:21.753Z,85.49
2017-10-30T05:41:21.596Z,85.20
2017-10-30T05:42:21.579Z,85.39
2017-10-30T05:43:21.564Z,84.72
2017-10-30T05:44:21.548Z,85.39
2017-10-30T05:45:21.528Z,85.20
2017-10-30T05:46:21.641Z,85.01
2017-10-30T05:47:21.491Z,85.11
2017-10-30T05:48:21.471Z,85.58
2017-10-30T05:49:21.459Z,85.11
2017-10-30T05:50:21.442Z,85.68
2017-10-30T05:51:21.421Z,85.44
2017-10-30T05:52:21.436Z,85.86
2017-10-30T05:53:21.393Z,85.16
2017-10-30T05:54:21.379Z,85.82
2017-10-30T05:55:21.351Z,85.77
2017-10-30T05:56:21.341Z,85.11
2017-10-30T05:57:21.380Z,85.63
2017-10-30T05:58:21.309Z,85.25
2017-10-30T05:59:21.290Z,85.53
2017-10-30T06:00:21.278Z,85.72
2017-10-30T06:01:21.256Z,85.53
2017-10-30T06:02:21.234Z,85.91
2017-10-30T06:03:21.354Z,85.63
2017-10-30T06:04:21.199Z,85.91
2017-10-30T06:05:21.190Z,85.91
2017-10-30T06:06:21.172Z,86.11
2017-10-30T06:07:21.160Z,85.82
2017-10-30T06:08:21.131Z,85.53
2017-10-30T06:09:21.271Z,85.91
2017-10-30T06:10:21.098Z,85.82
2017-10-30T06:11:21.089Z,86.11
2017-10-30T06:12:21.064Z,85.82
2017-10-30T06:13:21.041Z,85.44
2017-10-30T06:14:21.039Z,85.53
2017-10-30T06:15:21.071Z,85.16
2017-10-30T06:16:20.997Z,85.63
2017-10-30T06:17:20.982Z,85.35
2017-10-30T06:18:20.963Z,85.35
2017-10-30T06:19:20.948Z,85.72
2017-10-30T06:20:20.924Z,85.53
2017-10-30T06:21:20.969Z,85.91
2017-10-30T06:22:20.896Z,86.20
2017-10-30T06:23:20.876Z,85.35
2017-10-30T06:24:20.870Z,86.20
2017-10-30T06:25:20.845Z,86.01
2017-10-30T06:26:20.827Z,85.86
2017-10-30T06:27:20.874Z,85.53
2017-10-30T06:28:20.789Z,86.01
2017-10-30T06:29:20.783Z,85.63
2017-10-30T06:30:20.758Z,85.91
2017-10-30T06:31:20.741Z,85.72
2017-10-30T06:32:20.721Z,85.63
2017-10-30T06:33:20.846Z,85.72
2017-10-30T06:34:20.686Z,85.72
2017-10-30T06:35:20.671Z,85.72
2017-10-30T06:36:20.653Z,85.72
2017-10-30T06:37:20.648Z,85.72
2017-10-30T06:38:20.624Z,86.11
2017-10-30T06:39:20.679Z,85.72
2017-10-30T06:40:20.585Z,86.01
2017-10-30T06:41:20.581Z,85.72
2017-10-30T06:42:20.548Z,86.01
2017-10-30T06:43:20.529Z,85.82
2017-10-30T06:44:20.516Z,85.72
2017-10-30T06:45:20.652Z,85.63
2017-10-30T06:46:20.484Z,85.91
2017-10-30T06:47:20.466Z,86.11
2017-10-30T06:48:20.461Z,85.82
2017-10-30T06:49:20.430Z,85.35
2017-10-30T06:50:20.416Z,85.91
2017-10-30T06:51:20.434Z,85.82
2017-10-30T06:52:20.380Z,86.20
2017-10-30T06:53:20.363Z,85.91
2017-10-30T06:54:20.352Z,85.72
2017-10-30T06:55:20.707Z,85.91
2017-10-30T06:56:20.312Z,85.25
2017-10-30T06:57:20.314Z,86.49
2017-10-30T06:58:20.273Z,86.11
2017-10-30T06:59:20.267Z,85.35
2017-10-30T07:00:20.245Z,85.53
2017-10-30T07:01:20.330Z,85.16
2017-10-30T07:02:20.222Z,85.63
2017-10-30T07:03:20.194Z,85.53
2017-10-30T07:04:20.171Z,86.01
2017-10-30T07:05:20.158Z,85.82
2017-10-30T07:06:20.140Z,85.63
2017-10-30T07:07:20.794Z,85.35
2017-10-30T07:08:20.104Z,86.11
2017-10-30T07:09:20.088Z,85.91
2017-10-30T07:10:20.076Z,85.91
2017-10-30T07:11:20.058Z,86.01
2017-10-30T07:12:20.033Z,85.91
2017-10-30T07:13:20.445Z,85.82
2017-10-30T07:14:20.143Z,85.68
2017-10-30T07:15:20.248Z,85.72
2017-10-30T07:16:20.165Z,85.91
2017-10-30T07:17:19.961Z,85.49
2017-10-30T07:18:19.933Z,85.63
2017-10-30T07:19:19.952Z,85.96
2017-10-30T07:20:19.939Z,85.86
2017-10-30T07:21:19.888Z,85.86
2017-10-30T07:22:19.874Z,85.96
2017-10-30T07:23:19.850Z,85.96
2017-10-30T07:24:19.829Z,85.96
2017-10-30T07:25:19.954Z,85.68
2017-10-30T07:26:19.805Z,85.96
2017-10-30T07:27:19.789Z,85.86
2017-10-30T07:28:19.762Z,86.15
2017-10-30T07:29:19.757Z,85.86
2017-10-30T07:30:19.732Z,85.86
2017-10-30T07:31:19.748Z,86.05
2017-10-30T07:32:19.692Z,85.86
2017-10-30T07:33:19.685Z,85.86
2017-10-30T07:34:19.663Z,85.77
2017-10-30T07:35:19.724Z,85.86
2017-10-30T07:36:19.636Z,85.68
2017-10-30T07:37:19.608Z,85.86
2017-10-30T07:38:19.598Z,85.86
2017-10-30T07:39:19.579Z,85.86
2017-10-30T07:40:19.559Z,85.77
2017-10-30T07:41:19.577Z,85.68
2017-10-30T07:42:19.524Z,86.05
2017-10-30T07:43:19.512Z,85.86
2017-10-30T07:44:19.492Z,85.96
2017-10-30T07:45:19.529Z,85.96
2017-10-30T07:46:19.458Z,85.86
2017-10-30T07:47:19.445Z,85.77
2017-10-30T07:48:19.421Z,85.86
2017-10-30T07:49:19.411Z,86.05
2017-10-30T07:50:19.388Z,86.15
2017-10-30T07:51:19.434Z,85.68
2017-10-30T07:52:19.373Z,85.58
2017-10-30T07:53:19.345Z,85.30
2017-10-30T07:54:19.331Z,85.49
2017-10-30T07:55:19.301Z,85.11
2017-10-30T07:56:19.288Z,85.30
2017-10-30T07:57:19.372Z,85.77
2017-10-30T07:58:19.284Z,85.77
2017-10-30T07:59:19.237Z,85.58
2017-10-30T08:00:19.227Z,85.96
2017-10-30T08:01:19.217Z,85.20
2017-10-30T08:02:19.190Z,85.11
2017-10-30T08:03:19.356Z,85.39
2017-10-30T08:04:19.169Z,85.49
2017-10-30T08:05:19.144Z,85.49
2017-10-30T08:06:21.272Z,85.86
2017-10-30T08:07:19.105Z,85.20
2017-10-30T08:08:19.087Z,85.49
2017-10-30T08:09:19.425Z,85.11
2017-10-30T08:10:19.049Z,85.20
2017-10-30T08:11:19.035Z,85.39
2017-10-30T08:12:19.015Z,85.39
2017-10-30T08:13:19.000Z,85.43
2017-10-30T08:14:18.989Z,85.34
2017-10-30T08:15:19.025Z,85.05
2017-10-30T08:16:18.953Z,85.43
2017-10-30T08:17:18.940Z,85.15
2017-10-30T08:18:18.923Z,85.43
2017-10-30T08:19:18.903Z,84.67
2017-10-30T08:20:18.889Z,84.67
2017-10-30T08:21:18.899Z,84.67
2017-10-30T08:27:20.106Z,84.01
2017-10-30T08:28:20.158Z,84.10
2017-10-30T08:29:19.689Z,84.01
2017-10-30T08:30:20.209Z,83.82
2017-10-30T08:34:12.924Z,83.91
2017-10-30T08:50:57.077Z,82.39
2017-10-30T08:51:56.983Z,82.34
2017-10-30T08:52:57.735Z,82.24
2017-10-30T08:53:57.882Z,81.86
2017-10-30T08:54:57.823Z,82.05
2017-10-30T08:55:56.913Z,81.58
2017-10-30T08:56:57.107Z,82.15
2017-10-30T08:57:56.877Z,81.48
2017-10-30T08:58:56.864Z,81.96
2017-10-30T08:59:56.839Z,81.10
2017-10-30T09:00:56.832Z,81.10
2017-10-30T09:01:56.816Z,81.38
2017-10-30T09:02:56.934Z,81.38
2017-10-30T09:03:56.774Z,80.91
2017-10-30T09:04:56.955Z,81.01
2017-10-30T09:05:56.741Z,81.38
2017-10-30T09:06:56.723Z,81.38
2017-10-30T09:07:56.710Z,80.72
2017-10-30T09:08:56.841Z,80.24
2017-10-30T09:09:56.684Z,80.15
2017-10-30T09:10:56.661Z,81.20
2017-10-30T09:11:56.643Z,80.63
2017-10-30T09:12:56.636Z,80.53
2017-10-30T09:13:56.612Z,80.53
2017-10-30T09:14:56.761Z,80.53
2017-10-30T09:15:56.576Z,80.15
2017-10-30T09:16:56.564Z,80.91
2017-10-30T09:17:56.549Z,81.01
2017-10-30T09:18:56.536Z,80.44
2017-10-30T09:19:56.515Z,80.63
2017-10-30T09:20:56.531Z,80.91
2017-10-30T09:21:56.516Z,80.91
2017-10-30T09:22:56.467Z,81.48
2017-10-30T09:23:56.459Z,80.53
2017-10-30T09:25:05.615Z,80.72
2017-10-30T09:43:22.589Z,80.29
2017-10-30T09:45:37.239Z,80.10
2017-10-30T09:50:38.522Z,78.29
2017-10-30T09:51:38.380Z,78.67
2017-10-30T09:52:38.964Z,78.00
2017-10-30T09:53:38.716Z,78.38
2017-10-30T09:54:38.333Z,77.24
2017-10-30T09:55:38.585Z,76.20
2017-10-30T09:56:38.751Z,76.10
2017-10-30T09:57:38.313Z,75.62
2017-10-30T09:58:38.246Z,75.43
2017-10-30T09:59:38.239Z,76.01
2017-10-30T10:00:38.221Z,75.62
2017-10-30T10:01:38.834Z,76.57
2017-10-30T10:02:39.265Z,76.29
2017-10-30T10:03:38.969Z,76.20
2017-10-30T10:04:38.164Z,76.39
2017-10-30T10:05:38.138Z,76.01
2017-10-30T10:06:39.462Z,75.95
2017-10-30T10:07:38.208Z,75.81
2017-10-30T10:16:36.811Z,75.57
2017-10-30T10:17:34.830Z,75.85
2017-10-30T10:18:34.373Z,75.57
2017-10-30T10:19:34.326Z,75.76
2017-10-30T10:20:34.836Z,75.57
2017-10-30T10:21:34.336Z,75.85
2017-10-30T10:22:34.428Z,75.09
2017-10-30T10:23:34.262Z,75.28
2017-10-30T10:24:34.259Z,74.99
2017-10-30T10:25:34.234Z,74.99
2017-10-30T10:26:34.231Z,74.43
2017-10-30T10:27:34.205Z,74.71
2017-10-30T10:28:35.464Z,74.14
2017-10-30T10:29:34.262Z,74.24
2017-10-30T10:30:34.164Z,73.95
2017-10-30T10:31:34.164Z,74.14
2017-10-30T10:41:31.477Z,72.52
2017-10-30T10:42:30.728Z,72.05
2017-10-30T10:43:29.821Z,71.57
2017-10-30T10:47:31.970Z,72.33
2017-10-30T10:48:31.380Z,71.57
2017-10-30T10:49:31.122Z,72.14
2017-10-30T10:50:31.089Z,72.05
2017-10-30T10:51:31.428Z,73.10
2017-10-30T10:52:31.042Z,72.42
2017-10-30T10:53:31.029Z,72.14
2017-10-30T10:54:31.459Z,72.05
2017-10-30T10:55:31.009Z,73.00
2017-10-30T10:56:30.979Z,72.90
2017-10-30T10:57:30.973Z,73.32
2017-10-30T10:58:30.950Z,72.71
2017-10-30T10:59:30.932Z,72.62
2017-10-30T11:00:31.057Z,73.03
2017-10-30T11:01:30.903Z,71.13
2017-10-30T11:02:30.887Z,71.32
2017-10-30T11:03:30.874Z,71.47
2017-10-30T11:04:30.856Z,72.56
2017-10-30T11:05:30.846Z,73.32
2017-10-30T11:06:31.233Z,71.98
2017-10-30T11:07:30.816Z,72.27
2017-10-30T11:08:30.798Z,72.08
2017-10-30T11:09:30.782Z,71.98
2017-10-30T11:10:30.768Z,72.27
2017-10-30T11:11:30.759Z,72.37
2017-10-30T11:12:30.771Z,72.17
2017-10-30T11:16:21.535Z,71.13
2017-10-30T11:17:20.737Z,71.51
2017-10-30T11:18:21.079Z,70.94
2017-10-30T11:19:20.642Z,71.13
2017-10-30T11:20:22.783Z,71.42
2017-10-30T11:24:08.788Z,71.51
2017-10-30T11:25:08.722Z,70.75
2017-10-30T11:26:14.058Z,71.70
2017-10-30T11:27:07.903Z,71.61
2017-10-30T11:29:58.272Z,71.22
2017-10-30T11:35:32.695Z,71.51
2017-10-30T11:36:32.089Z,71.98
2017-10-30T11:37:32.555Z,71.73
2017-10-30T11:38:32.052Z,70.75
2017-10-30T11:39:32.126Z,70.12
2017-10-30T11:40:42.877Z,70.08
2017-10-30T11:41:32.008Z,70.08
2017-10-30T11:42:32.502Z,70.31
2017-10-30T11:43:31.985Z,70.08
2017-10-30T11:44:32.110Z,70.56
2017-10-30T11:45:31.935Z,70.88
2017-10-30T11:46:32.042Z,70.88
2017-10-30T11:47:31.911Z,70.50
2017-10-30T11:48:31.895Z,70.50
2017-10-30T11:49:31.883Z,69.70
2017-10-30T11:50:31.868Z,71.03
2017-10-30T11:51:32.258Z,70.37
2017-10-30T11:52:31.883Z,70.56
2017-10-30T11:53:31.828Z,70.08
2017-10-30T11:54:31.811Z,70.75
2017-10-30T11:55:31.800Z,70.94
2017-10-30T11:56:31.778Z,70.75
2017-10-30T11:57:32.349Z,70.75
2017-10-30T11:58:32.119Z,70.84
2017-10-30T11:59:31.733Z,71.03
2017-10-30T12:00:31.716Z,70.65
2017-10-30T12:01:31.709Z,70.56
2017-10-30T12:02:31.714Z,70.94
2017-10-30T12:03:31.671Z,71.70
2017-10-30T12:04:31.728Z,71.61
2017-10-30T12:05:31.648Z,71.61
2017-10-30T12:06:31.630Z,71.51
2017-10-30T12:07:31.614Z,70.94
2017-10-30T12:08:31.602Z,70.08
2017-10-30T12:09:31.586Z,70.75
2017-10-30T12:10:31.634Z,71.42
2017-10-30T12:11:31.559Z,70.65
2017-10-30T12:12:31.542Z,70.08
2017-10-30T12:13:31.548Z,70.84
2017-10-30T12:14:31.515Z,70.50
2017-10-30T12:15:31.504Z,70.50
2017-10-30T12:16:31.517Z,69.45
2017-10-30T12:17:31.510Z,69.32
2017-10-30T12:18:32.197Z,69.07
2017-10-30T12:19:32.124Z,70.12
2017-10-30T12:20:32.046Z,70.12
2017-10-30T12:21:31.520Z,70.88
2017-10-30T12:22:31.691Z,70.69
2017-10-30T12:23:31.408Z,70.59
2017-10-30T12:24:31.410Z,70.31
2017-10-30T12:25:50.377Z,70.59
2017-10-30T12:26:31.367Z,70.69
2017-10-30T12:39:49.644Z,70.12
2017-10-30T12:40:37.899Z,72.02
2017-10-30T12:41:38.492Z,71.45
2017-10-30T12:44:18.169Z,74.94
2017-10-30T12:45:18.215Z,75.70
2017-10-30T12:46:27.962Z,77.03
2017-10-30T12:49:38.171Z,78.71
2017-10-30T12:50:38.590Z,77.95
2017-10-30T12:51:38.198Z,78.42
2017-10-30T12:52:38.220Z,78.99
2017-10-30T12:53:38.150Z,79.28
2017-10-30T12:54:37.455Z,79.47
2017-10-30T12:55:37.292Z,79.75
2017-10-30T12:56:38.166Z,80.33
2017-10-30T12:57:37.976Z,79.85
2017-10-30T12:58:37.896Z,80.42
2017-10-30T12:59:37.199Z,80.23
2017-10-30T13:00:37.206Z,80.80
2017-10-30T13:01:37.153Z,80.90
2017-10-30T13:02:37.467Z,80.90
2017-10-30T13:03:37.118Z,80.80
2017-10-30T13:04:37.103Z,81.09
2017-10-30T13:05:37.091Z,81.28
2017-10-30T13:06:37.079Z,81.47
2017-10-30T13:07:37.059Z,81.47
2017-10-30T13:08:37.109Z,81.18
2017-10-30T13:09:37.029Z,81.09
2017-10-30T13:10:37.013Z,81.09
2017-10-30T13:11:37.000Z,81.09
2017-10-30T13:12:36.983Z,81.76
2017-10-30T13:13:36.963Z,81.85
2017-10-30T13:14:37.025Z,81.47
2017-10-30T13:15:36.944Z,81.18
2017-10-30T13:16:36.936Z,81.76
2017-10-30T13:25:15.140Z,79.85
2017-10-30T13:26:14.569Z,79.47
2017-10-30T13:27:14.539Z,79.66
2017-10-30T13:28:14.533Z,79.85
2017-10-30T13:29:14.510Z,80.23
2017-10-30T13:30:14.479Z,80.04
2017-10-30T13:31:14.997Z,80.04
2017-10-30T13:32:14.454Z,78.90
2017-10-30T13:33:14.432Z,79.28
2017-10-30T13:34:14.426Z,79.85
2017-10-30T13:35:14.415Z,79.85
2017-10-30T13:36:14.472Z,79.85
2017-10-30T13:37:14.439Z,79.47
2017-10-30T13:38:14.362Z,78.90
2017-10-30T13:39:14.343Z,78.90
2017-10-30T13:40:14.330Z,79.03
2017-10-30T13:41:14.318Z,79.13
2017-10-30T13:42:14.306Z,77.66
2017-10-30T13:43:14.353Z,77.66
2017-10-30T13:44:14.271Z,77.80
2017-10-30T13:45:14.254Z,77.51
2017-10-30T13:46:14.256Z,77.70
2017-10-30T13:47:14.223Z,77.42
2017-10-30T13:48:14.212Z,77.70
2017-10-30T13:49:14.264Z,77.42
2017-10-30T13:50:14.186Z,77.51
2017-10-30T13:51:14.171Z,77.32
2017-10-30T13:52:14.150Z,76.94
2017-10-30T13:53:14.138Z,76.08
2017-10-30T13:54:14.120Z,74.56
2017-10-30T13:55:14.188Z,74.56
2017-10-30T13:56:14.093Z,75.13
2017-10-30T13:57:14.078Z,75.32
2017-10-30T13:58:14.068Z,75.13
2017-10-30T13:59:14.044Z,74.75
2017-10-30T14:00:14.030Z,75.70
2017-10-30T14:01:14.395Z,75.89
2017-10-30T14:02:14.007Z,75.99
2017-10-30T14:03:13.985Z,75.79
2017-10-30T14:04:13.977Z,75.89
2017-10-30T14:05:13.956Z,76.84
2017-10-30T14:06:14.079Z,75.99
2017-10-30T14:07:14.361Z,76.08
2017-10-30T14:08:13.917Z,74.18
2017-10-30T14:09:13.897Z,75.13
2017-10-30T14:10:13.898Z,75.13
2017-10-30T14:11:13.873Z,75.13
2017-10-30T14:12:13.851Z,74.46
2017-10-30T14:13:13.874Z,73.80
2017-10-30T14:14:13.828Z,74.18
2017-10-30T14:15:13.809Z,73.89
2017-10-30T14:16:13.802Z,73.99
2017-10-30T14:17:13.781Z,74.56
2017-10-30T14:18:13.761Z,75.51
2017-10-30T14:19:13.991Z,76.18
2017-10-30T14:20:13.731Z,74.62
2017-10-30T14:21:13.719Z,75.09
2017-10-30T14:22:13.709Z,75.79
2017-10-30T14:23:13.694Z,75.67
2017-10-30T14:24:13.673Z,76.23
2017-10-30T14:25:13.721Z,76.37
2017-10-30T14:26:13.643Z,76.81
2017-10-30T14:27:13.631Z,76.61
2017-10-30T14:28:13.614Z,76.71
2017-10-30T14:29:13.600Z,77.22
2017-10-30T14:30:13.588Z,77.28
2017-10-30T14:31:13.596Z,77.66
2017-10-30T14:32:13.553Z,77.76
2017-10-30T14:33:13.550Z,77.70
2017-10-30T14:34:13.523Z,77.47